PWSweather.com
Personal Weather Stations
Station Observations
SHAHALMS1
Eftra, Falkenberg, HA

EftraFalkenberg, HA

Lat: 56.85, Lon: 12.65

Elevation: 140

Station Type:

http://hem.passagen.se/risarp101

High Low Average
Temperature 40.6°F4.8°C 33.4°F0.8°C 37.0°F2.8°C
Dew Point 39.0°F3.9°C 31.4°F-0.3°C 34.7°F1.5°C
Winds 9.1 mph 14.6 kmh Calm Calm 3.0 mph S4.8 kmh S
Wind Gusts 22.2 mph35.7 kmh -- 9.0 mph14.5 kmh
Humidity 94% 85% 91%
Pressure 29.65 in1004.1 mb 28.85 in977.0 mb -
Precipitation 0.31 in7.9 mm - -
Hour Temp Dew Point Humidity Winds Wind Gusts Pressure Precip Precip Rate Daily Precip Total
12:00 AM 40.3°F4.6°C 38.4°F3.6°C 93% 4.4 mph W7.1 kmh W 9.3 mph15.0 kmh 28.85 in977.0 mb 0.00 in0.0 mm 0.00 in0.0 mm 0.00 in0.0 mm
12:15 AM 40.5°F4.7°C 38.6°F3.7°C 93% 4.3 mph W6.9 kmh W 9.3 mph15.0 kmh 28.85 in977.0 mb 0.00 in0.0 mm 0.00 in0.0 mm 0.00 in0.0 mm
12:30 AM 40.5°F4.7°C 38.6°F3.7°C 93% 4.6 mph W7.4 kmh W 8.9 mph14.3 kmh 28.85 in977.0 mb 0.00 in0.0 mm 0.00 in0.0 mm 0.00 in0.0 mm
12:45 AM 40.5°F4.7°C 38.9°F3.8°C 94% 5.5 mph W8.9 kmh W 10.4 mph16.7 kmh 28.88 in978.0 mb 0.00 in0.0 mm 0.00 in0.0 mm 0.00 in0.0 mm
01:00 AM 40.5°F4.7°C 38.9°F3.8°C 94% 5.1 mph W8.2 kmh W 9.7 mph15.6 kmh 28.88 in978.0 mb 0.00 in0.0 mm 0.00 in0.0 mm 0.00 in0.0 mm
01:15 AM 40.6°F4.8°C 39.0°F3.9°C 94% 5.3 mph W8.5 kmh W 12.9 mph20.8 kmh 28.88 in978.0 mb 0.00 in0.0 mm 0.00 in0.0 mm 0.00 in0.0 mm
01:30 AM 40.6°F4.8°C 39.0°F3.9°C 94% 3.5 mph W5.6 kmh W 9.3 mph15.0 kmh 28.88 in978.0 mb 0.00 in0.0 mm 0.00 in0.0 mm 0.00 in0.0 mm
01:45 AM 40.6°F4.8°C 39.0°F3.9°C 94% 4.5 mph W7.2 kmh W 9.3 mph15.0 kmh 28.88 in978.0 mb 0.00 in0.0 mm 0.00 in0.0 mm 0.00 in0.0 mm
02:00 AM 40.5°F4.7°C 38.9°F3.8°C 94% 4.9 mph W7.9 kmh W 10.7 mph17.2 kmh 28.85 in977.0 mb 0.00 in0.0 mm 0.00 in0.0 mm 0.00 in0.0 mm
02:15 AM 40.5°F4.7°C 38.9°F3.8°C 94% 4.6 mph W7.4 kmh W 7.9 mph12.7 kmh 28.88 in978.0 mb 0.00 in0.0 mm 0.00 in0.0 mm 0.00 in0.0 mm
02:30 AM 40.5°F4.7°C 38.9°F3.8°C 94% 5.1 mph W8.2 kmh W 12.9 mph20.8 kmh 28.88 in978.0 mb 0.00 in0.0 mm 0.00 in0.0 mm 0.00 in0.0 mm
02:45 AM 40.3°F4.6°C 38.7°F3.7°C 94% 5.6 mph W9.0 kmh W 13.6 mph21.9 kmh 28.91 in979.0 mb 0.00 in0.0 mm 0.00 in0.0 mm 0.00 in0.0 mm
03:00 AM 40.1°F4.5°C 38.5°F3.6°C 94% 5.8 mph W9.3 kmh W 14.0 mph22.5 kmh 28.91 in979.0 mb 0.00 in0.0 mm 0.00 in0.0 mm 0.00 in0.0 mm
03:15 AM 39.6°F4.2°C 37.7°F3.2°C 93% 7.3 mph W11.7 kmh W 22.2 mph35.7 kmh 28.94 in980.0 mb 0.00 in0.0 mm 0.00 in0.0 mm 0.00 in0.0 mm
03:30 AM 39.0°F3.9°C 37.2°F2.9°C 93% 8.3 mph W13.4 kmh W 19.3 mph31.1 kmh 28.94 in980.0 mb 0.00 in0.0 mm 0.00 in0.0 mm 0.00 in0.0 mm
03:45 AM 38.5°F3.6°C 36.6°F2.6°C 93% 6.8 mph W10.9 kmh W 15.4 mph24.8 kmh 28.94 in980.0 mb 0.00 in0.0 mm 0.00 in0.0 mm 0.00 in0.0 mm
04:00 AM 38.1°F3.4°C 36.3°F2.4°C 93% 7.4 mph W11.9 kmh W 14.3 mph23.0 kmh 28.94 in980.0 mb 0.00 in0.0 mm 0.00 in0.0 mm 0.00 in0.0 mm
04:15 AM 37.6°F3.1°C 35.5°F1.9°C 92% 9.1 mph W14.6 kmh W 21.1 mph34.0 kmh 28.94 in980.0 mb 0.00 in0.0 mm 0.00 in0.0 mm 0.00 in0.0 mm
04:30 AM 37.0°F2.8°C 34.9°F1.6°C 92% 8.5 mph W13.7 kmh W 17.5 mph28.2 kmh 28.97 in981.0 mb 0.00 in0.0 mm 0.00 in0.0 mm 0.00 in0.0 mm
04:46 AM 36.3°F2.4°C 33.9°F1.1°C 91% 7.4 mph WNW11.9 kmh WNW 16.8 mph27.0 kmh 28.97 in981.0 mb 0.00 in0.0 mm 0.00 in0.0 mm 0.00 in0.0 mm
05:00 AM 36.1°F2.3°C 33.8°F1.0°C 91% 7.0 mph WNW11.3 kmh WNW 15.7 mph25.3 kmh 28.97 in981.0 mb 0.05 in1.3 mm 0.07 in1.8 mm 0.05 in1.3 mm
05:15 AM 36.0°F2.2°C 33.9°F1.1°C 92% 7.7 mph WNW12.4 kmh WNW 19.0 mph30.6 kmh 29.00 in982.1 mb 0.05 in1.3 mm 0.00 in0.0 mm 0.05 in1.3 mm
05:30 AM 36.0°F2.2°C 33.9°F1.1°C 92% 7.4 mph WNW11.9 kmh WNW 16.8 mph27.0 kmh 29.00 in982.1 mb 0.05 in1.3 mm 0.00 in0.0 mm 0.05 in1.3 mm
05:45 AM 36.0°F2.2°C 33.9°F1.1°C 92% 6.8 mph WNW10.9 kmh WNW 14.0 mph22.5 kmh 29.00 in982.1 mb 0.05 in1.3 mm 0.00 in0.0 mm 0.05 in1.3 mm
06:00 AM 35.8°F2.1°C 33.7°F0.9°C 92% 6.8 mph WNW10.9 kmh WNW 13.6 mph21.9 kmh 29.00 in982.1 mb 0.00 in0.0 mm 0.00 in0.0 mm 0.05 in1.3 mm
06:15 AM 35.6°F2.0°C 33.5°F0.8°C 92% 7.7 mph WNW12.4 kmh WNW 16.1 mph25.9 kmh 29.03 in983.1 mb 0.00 in0.0 mm 0.00 in0.0 mm 0.05 in1.3 mm
06:30 AM 35.4°F1.9°C 33.3°F0.7°C 92% 6.4 mph WNW10.3 kmh WNW 17.2 mph27.7 kmh 29.03 in983.1 mb 0.00 in0.0 mm 0.00 in0.0 mm 0.05 in1.3 mm
06:45 AM 35.2°F1.8°C 33.1°F0.6°C 92% 5.9 mph WNW9.5 kmh WNW 12.9 mph20.8 kmh 29.06 in984.1 mb 0.00 in0.0 mm 0.00 in0.0 mm 0.05 in1.3 mm
07:00 AM 34.9°F1.6°C 32.8°F0.4°C 92% 5.3 mph WNW8.5 kmh WNW 10.0 mph16.1 kmh 29.06 in984.1 mb 0.00 in0.0 mm 0.00 in0.0 mm 0.05 in1.3 mm
07:15 AM 34.7°F1.5°C 32.6°F0.3°C 92% 5.9 mph WNW9.5 kmh WNW 12.9 mph20.8 kmh 29.06 in984.1 mb 0.00 in0.0 mm 0.00 in0.0 mm 0.05 in1.3 mm
07:30 AM 34.3°F1.3°C 32.3°F0.2°C 92% 5.2 mph NW8.4 kmh NW 11.5 mph18.5 kmh 29.06 in984.1 mb 0.05 in1.3 mm 0.20 in5.1 mm 0.10 in2.5 mm
07:45 AM 34.0°F1.1°C 31.9°F-0.1°C 92% 5.9 mph NW9.5 kmh NW 12.5 mph20.1 kmh 29.09 in985.1 mb 0.05 in1.3 mm 0.00 in0.0 mm 0.10 in2.5 mm
08:00 AM 33.6°F0.9°C 31.5°F-0.3°C 92% 6.5 mph NW10.5 kmh NW 12.9 mph20.8 kmh 29.12 in986.1 mb 0.05 in1.3 mm 0.00 in0.0 mm 0.10 in2.5 mm
08:15 AM 33.4°F0.8°C 31.4°F-0.3°C 92% 5.9 mph NW9.5 kmh NW 10.4 mph16.7 kmh 29.12 in986.1 mb 0.00 in0.0 mm 0.00 in0.0 mm 0.10 in2.5 mm
08:30 AM 33.6°F0.9°C 31.8°F-0.1°C 93% 5.4 mph NW8.7 kmh NW 10.4 mph16.7 kmh 29.09 in985.1 mb 0.00 in0.0 mm 0.00 in0.0 mm 0.10 in2.5 mm
08:45 AM 33.8°F1.0°C 32.0°F0.0°C 93% 4.9 mph NW7.9 kmh NW 10.0 mph16.1 kmh 29.12 in986.1 mb 0.00 in0.0 mm 0.00 in0.0 mm 0.10 in2.5 mm
09:00 AM 33.8°F1.0°C 32.0°F0.0°C 93% 4.0 mph NNW6.4 kmh NNW 10.4 mph16.7 kmh 29.15 in987.1 mb 0.00 in0.0 mm 0.00 in0.0 mm 0.10 in2.5 mm
09:15 AM 34.2°F1.2°C 32.3°F0.2°C 93% 1.0 mph NW1.6 kmh NW 6.4 mph10.3 kmh 29.18 in988.1 mb 0.00 in0.0 mm 0.00 in0.0 mm 0.10 in2.5 mm
09:30 AM 34.5°F1.4°C 32.7°F0.4°C 93% 1.1 mph NW1.8 kmh NW 5.7 mph9.2 kmh 29.18 in988.1 mb 0.00 in0.0 mm 0.00 in0.0 mm 0.10 in2.5 mm
09:45 AM 35.1°F1.7°C 33.2°F0.7°C 93% 2.6 mph NW4.2 kmh NW 8.6 mph13.8 kmh 29.21 in989.2 mb 0.05 in1.3 mm 0.20 in5.1 mm 0.15 in3.8 mm
10:00 AM 35.6°F2.0°C 34.0°F1.1°C 94% 0.4 mph NW0.6 kmh NW 5.4 mph8.7 kmh 29.21 in989.2 mb 0.05 in1.3 mm 0.00 in0.0 mm 0.15 in3.8 mm
10:15 AM 36.5°F2.5°C 34.9°F1.6°C 94% 0.1 mph NW0.2 kmh NW 2.5 mph4.0 kmh 29.24 in990.2 mb 0.05 in1.3 mm 0.00 in0.0 mm 0.15 in3.8 mm
10:30 AM 37.2°F2.9°C 35.7°F2.1°C 94% 3.0 mph N4.8 kmh N 9.7 mph15.6 kmh 29.27 in991.2 mb 0.05 in1.3 mm 0.00 in0.0 mm 0.15 in3.8 mm
10:45 AM 37.4°F3.0°C 35.6°F2.0°C 93% 3.9 mph N6.3 kmh N 9.3 mph15.0 kmh 29.24 in990.2 mb 0.00 in0.0 mm 0.00 in0.0 mm 0.15 in3.8 mm
11:00 AM 37.6°F3.1°C 35.7°F2.1°C 93% 0.5 mph N0.8 kmh N 6.1 mph9.8 kmh 29.24 in990.2 mb 0.00 in0.0 mm 0.00 in0.0 mm 0.15 in3.8 mm
11:15 AM 37.8°F3.2°C 35.9°F2.2°C 93% 1.4 mph N2.3 kmh N 7.9 mph12.7 kmh 29.24 in990.2 mb 0.00 in0.0 mm 0.00 in0.0 mm 0.15 in3.8 mm
11:30 AM 38.3°F3.5°C 36.5°F2.5°C 93% 0.9 mph N1.4 kmh N 6.8 mph10.9 kmh 29.27 in991.2 mb 0.00 in0.0 mm 0.00 in0.0 mm 0.15 in3.8 mm
11:45 AM 38.3°F3.5°C 36.2°F2.3°C 92% 0.4 mph N0.6 kmh N 7.2 mph11.6 kmh 29.30 in992.2 mb 0.00 in0.0 mm 0.00 in0.0 mm 0.15 in3.8 mm
12:00 PM 39.0°F3.9°C 36.9°F2.7°C 92% Calm Calm 2.1 mph3.4 kmh 29.30 in992.2 mb 0.00 in0.0 mm 0.00 in0.0 mm 0.15 in3.8 mm
12:15 PM 39.6°F4.2°C 37.4°F3.0°C 92% Calm Calm -- 29.30 in992.2 mb 0.00 in0.0 mm 0.00 in0.0 mm 0.15 in3.8 mm
12:30 PM 40.3°F4.6°C 37.9°F3.3°C 91% 0.1 mph NNE0.2 kmh NNE 2.1 mph3.4 kmh 29.30 in992.2 mb 0.00 in0.0 mm 0.00 in0.0 mm 0.15 in3.8 mm
12:46 PM 40.3°F4.6°C 37.3°F2.9°C 89% 0.1 mph N0.2 kmh N 3.9 mph6.3 kmh 29.33 in993.2 mb 0.00 in0.0 mm 0.00 in0.0 mm 0.15 in3.8 mm
01:00 PM 39.7°F4.3°C 36.5°F2.5°C 88% 0.1 mph N0.2 kmh N 2.1 mph3.4 kmh 29.33 in993.2 mb 0.00 in0.0 mm 0.00 in0.0 mm 0.15 in3.8 mm
01:15 PM 39.6°F4.2°C 36.3°F2.4°C 88% Calm Calm -- 29.36 in994.2 mb 0.00 in0.0 mm 0.00 in0.0 mm 0.15 in3.8 mm
01:30 PM 39.9°F4.4°C 36.7°F2.6°C 88% Calm Calm -- 29.33 in993.2 mb 0.00 in0.0 mm 0.00 in0.0 mm 0.15 in3.8 mm
01:45 PM 39.6°F4.2°C 36.0°F2.2°C 87% 0.1 mph NNE0.2 kmh NNE 1.8 mph2.9 kmh 29.36 in994.2 mb 0.00 in0.0 mm 0.00 in0.0 mm 0.15 in3.8 mm
02:00 PM 39.0°F3.9°C 35.2°F1.8°C 86% Calm Calm -- 29.36 in994.2 mb 0.00 in0.0 mm 0.00 in0.0 mm 0.15 in3.8 mm
02:15 PM 38.8°F3.8°C 35.0°F1.7°C 86% Calm Calm 1.4 mph2.3 kmh 29.33 in993.2 mb 0.05 in1.3 mm 0.20 in5.1 mm 0.20 in5.1 mm
02:30 PM 37.8°F3.2°C 33.7°F0.9°C 85% Calm Calm -- 29.36 in994.2 mb 0.05 in1.3 mm 0.00 in0.0 mm 0.20 in5.1 mm
02:45 PM 38.1°F3.4°C 34.6°F1.4°C 87% Calm Calm -- 29.39 in995.3 mb 0.05 in1.3 mm 0.00 in0.0 mm 0.20 in5.1 mm
03:00 PM 37.9°F3.3°C 34.4°F1.3°C 87% 1.1 mph E1.8 kmh E 8.6 mph13.8 kmh 29.39 in995.3 mb 0.05 in1.3 mm 0.00 in0.0 mm 0.20 in5.1 mm
03:15 PM 37.8°F3.2°C 34.5°F1.4°C 88% 1.1 mph E1.8 kmh E 6.8 mph10.9 kmh 29.41 in995.9 mb 0.00 in0.0 mm 0.00 in0.0 mm 0.20 in5.1 mm
03:30 PM 37.8°F3.2°C 34.5°F1.4°C 88% 1.9 mph E3.1 kmh E 8.6 mph13.8 kmh 29.45 in997.3 mb 0.00 in0.0 mm 0.00 in0.0 mm 0.20 in5.1 mm
03:45 PM 37.8°F3.2°C 34.5°F1.4°C 88% 3.5 mph E5.6 kmh E 8.9 mph14.3 kmh 29.41 in995.9 mb 0.00 in0.0 mm 0.00 in0.0 mm 0.20 in5.1 mm
04:00 PM 37.8°F3.2°C 34.8°F1.6°C 89% 0.8 mph ENE1.3 kmh ENE 4.7 mph7.6 kmh 29.41 in995.9 mb 0.05 in1.3 mm 0.07 in1.8 mm 0.25 in6.4 mm
04:15 PM 37.8°F3.2°C 34.8°F1.6°C 89% 1.3 mph ENE2.1 kmh ENE 6.1 mph9.8 kmh 29.41 in995.9 mb 0.05 in1.3 mm 0.00 in0.0 mm 0.25 in6.4 mm
04:30 PM 37.6°F3.1°C 34.6°F1.4°C 89% 3.1 mph E5.0 kmh E 7.9 mph12.7 kmh 29.41 in995.9 mb 0.05 in1.3 mm 0.00 in0.0 mm 0.25 in6.4 mm
04:45 PM 37.4°F3.0°C 34.5°F1.4°C 89% 3.3 mph E5.3 kmh E 7.9 mph12.7 kmh 29.45 in997.3 mb 0.05 in1.3 mm 0.00 in0.0 mm 0.25 in6.4 mm
05:00 PM 37.4°F3.0°C 34.5°F1.4°C 89% 1.6 mph E2.6 kmh E 6.8 mph10.9 kmh 29.45 in997.3 mb 0.00 in0.0 mm 0.00 in0.0 mm 0.25 in6.4 mm
05:15 PM 37.4°F3.0°C 34.5°F1.4°C 89% 2.2 mph E3.5 kmh E 6.8 mph10.9 kmh 29.47 in998.0 mb 0.00 in0.0 mm 0.00 in0.0 mm 0.25 in6.4 mm
05:30 PM 37.2°F2.9°C 34.3°F1.3°C 89% 3.1 mph E5.0 kmh E 7.9 mph12.7 kmh 29.47 in998.0 mb 0.00 in0.0 mm 0.00 in0.0 mm 0.25 in6.4 mm
05:45 PM 37.0°F2.8°C 34.1°F1.2°C 89% 2.7 mph E4.3 kmh E 6.4 mph10.3 kmh 29.45 in997.3 mb 0.00 in0.0 mm 0.00 in0.0 mm 0.25 in6.4 mm
06:00 PM 36.7°F2.6°C 33.7°F0.9°C 89% 0.6 mph E1.0 kmh E 7.5 mph12.1 kmh 29.47 in998.0 mb 0.00 in0.0 mm 0.00 in0.0 mm 0.25 in6.4 mm
06:15 PM 36.7°F2.6°C 33.7°F0.9°C 89% 0.5 mph NE0.8 kmh NE 4.7 mph7.6 kmh 29.50 in999.0 mb 0.00 in0.0 mm 0.00 in0.0 mm 0.25 in6.4 mm
06:30 PM 36.3°F2.4°C 33.4°F0.8°C 89% 3.9 mph E6.3 kmh E 8.6 mph13.8 kmh 29.50 in999.0 mb 0.00 in0.0 mm 0.00 in0.0 mm 0.25 in6.4 mm
06:45 PM 36.0°F2.2°C 33.0°F0.6°C 89% 3.0 mph E4.8 kmh E 7.9 mph12.7 kmh 29.53 in1000.0 mb 0.00 in0.0 mm 0.00 in0.0 mm 0.25 in6.4 mm
07:00 PM 35.6°F2.0°C 32.7°F0.4°C 89% 2.2 mph E3.5 kmh E 6.4 mph10.3 kmh 29.56 in1001.0 mb 0.00 in0.0 mm 0.00 in0.0 mm 0.25 in6.4 mm
07:15 PM 35.2°F1.8°C 32.3°F0.2°C 89% 3.3 mph E5.3 kmh E 9.7 mph15.6 kmh 29.50 in999.0 mb 0.00 in0.0 mm 0.00 in0.0 mm 0.25 in6.4 mm
07:30 PM 35.1°F1.7°C 32.4°F0.2°C 90% 4.0 mph E6.4 kmh E 8.6 mph13.8 kmh 29.53 in1000.0 mb 0.00 in0.0 mm 0.00 in0.0 mm 0.25 in6.4 mm
07:45 PM 34.9°F1.6°C 32.2°F0.1°C 90% 3.3 mph E5.3 kmh E 8.6 mph13.8 kmh 29.53 in1000.0 mb 0.00 in0.0 mm 0.00 in0.0 mm 0.25 in6.4 mm
08:00 PM 34.9°F1.6°C 32.5°F0.3°C 91% 4.3 mph E6.9 kmh E 7.9 mph12.7 kmh 29.56 in1001.0 mb 0.00 in0.0 mm 0.00 in0.0 mm 0.25 in6.4 mm
08:15 PM 34.7°F1.5°C 32.3°F0.2°C 91% 4.2 mph E6.8 kmh E 8.9 mph14.3 kmh 29.59 in1002.0 mb 0.00 in0.0 mm 0.00 in0.0 mm 0.25 in6.4 mm
08:30 PM 34.3°F1.3°C 32.0°F0.0°C 91% 3.5 mph E5.6 kmh E 6.8 mph10.9 kmh 29.59 in1002.0 mb 0.00 in0.0 mm 0.00 in0.0 mm 0.25 in6.4 mm
08:45 PM 34.3°F1.3°C 32.0°F0.0°C 91% 3.4 mph E5.5 kmh E 6.4 mph10.3 kmh 29.56 in1001.0 mb 0.00 in0.0 mm 0.00 in0.0 mm 0.25 in6.4 mm
09:00 PM 34.3°F1.3°C 32.0°F0.0°C 91% 2.9 mph E4.7 kmh E 7.2 mph11.6 kmh 29.56 in1001.0 mb 0.00 in0.0 mm 0.00 in0.0 mm 0.25 in6.4 mm
09:15 PM 34.5°F1.4°C 32.4°F0.2°C 92% Calm Calm -- 29.59 in1002.0 mb 0.06 in1.5 mm 0.24 in6.1 mm 0.31 in7.9 mm
09:30 PM 34.7°F1.5°C 32.6°F0.3°C 92% 1.6 mph E2.6 kmh E 6.8 mph10.9 kmh 29.59 in1002.0 mb 0.06 in1.5 mm 0.00 in0.0 mm 0.31 in7.9 mm
09:45 PM 35.1°F1.7°C 33.0°F0.6°C 92% 0.5 mph ESE0.8 kmh ESE 5.7 mph9.2 kmh 29.62 in1003.0 mb 0.06 in1.5 mm 0.00 in0.0 mm 0.31 in7.9 mm
10:00 PM 34.9°F1.6°C 32.8°F0.4°C 92% 0.2 mph E0.3 kmh E 4.3 mph6.9 kmh 29.62 in1003.0 mb 0.06 in1.5 mm 0.00 in0.0 mm 0.31 in7.9 mm
10:15 PM 35.1°F1.7°C 33.0°F0.6°C 92% 0.9 mph E1.4 kmh E 12.2 mph19.6 kmh 29.65 in1004.1 mb 0.00 in0.0 mm 0.00 in0.0 mm 0.31 in7.9 mm
10:30 PM 35.1°F1.7°C 33.2°F0.7°C 93% 1.2 mph SE1.9 kmh SE 7.5 mph12.1 kmh 29.65 in1004.1 mb 0.00 in0.0 mm 0.00 in0.0 mm 0.31 in7.9 mm
10:45 PM 35.2°F1.8°C 33.4°F0.8°C 93% 0.5 mph ESE0.8 kmh ESE 5.7 mph9.2 kmh 29.65 in1004.1 mb 0.00 in0.0 mm 0.00 in0.0 mm 0.31 in7.9 mm
11:00 PM 35.2°F1.8°C 33.4°F0.8°C 93% 0.2 mph S0.3 kmh S 6.1 mph9.8 kmh 29.65 in1004.1 mb 0.00 in0.0 mm 0.00 in0.0 mm 0.31 in7.9 mm
11:15 PM 35.4°F1.9°C 33.6°F0.9°C 93% 3.6 mph SE5.8 kmh SE 9.3 mph15.0 kmh 29.62 in1003.0 mb 0.00 in0.0 mm 0.00 in0.0 mm 0.31 in7.9 mm
11:30 PM 35.6°F2.0°C 33.8°F1.0°C 93% 4.9 mph SE7.9 kmh SE 11.1 mph17.9 kmh 29.65 in1004.1 mb 0.00 in0.0 mm 0.00 in0.0 mm 0.31 in7.9 mm
11:45 PM 35.8°F2.1°C 34.0°F1.1°C 93% Calm Calm -- 29.65 in1004.1 mb 0.00 in0.0 mm 0.00 in0.0 mm 0.31 in7.9 mm